Time;durP1;ratioP1;P1;durP2;ratioP2;P2;SDS_P1;SDS_P2;PMS_P1;PMS_P2;Temp;Humidity;BMP_temperature;BMP_pressure;BME280_temperature;BME280_humidity;BME280_pressure;Samples;Min_cycle;Max_cycle;Signal;HPM_P1;HPM_P2
2022/08/01 00:00:20;;;;;;;10.40;5.72;;;;;;;;;;4937092;28;20117;-71
2022/08/01 00:02:48;;;;;;;7.68;5.65;;;;;;;;;;4933210;28;20030;-71
2022/08/01 00:05:13;;;;;;;10.25;6.15;;;;;;;;;;4931608;28;20042;-70
2022/08/01 00:07:38;;;;;;;10.55;6.00;;;;;;;;;;4931043;28;20034;-70
2022/08/01 00:10:05;;;;;;;14.68;6.38;;;;;;;;;;4931685;28;22345;-71
2022/08/01 00:12:32;;;;;;;11.75;6.88;;;;;;;;;;4931768;28;20030;-72
2022/08/01 00:14:57;;;;;;;11.45;6.40;;;;;;;;;;4929795;28;20528;-71
2022/08/01 00:17:25;;;;;;;16.58;6.80;;;;;;;;;;4933039;28;20041;-70
2022/08/01 00:19:51;;;;;;;11.52;6.43;;;;;;;;;;4930386;28;20072;-70
2022/08/01 00:22:16;;;;;;;13.05;7.55;;;;;;;;;;4931602;28;20940;-72
2022/08/01 00:24:42;;;;;;;11.65;6.50;;;;;;;;;;4931641;28;20146;-70
2022/08/01 00:27:07;;;;;;;14.05;6.97;;;;;;;;;;4923555;28;20046;-71
2022/08/01 00:29:32;;;;;;;11.43;6.65;;;;;;;;;;4960193;28;20046;-71
2022/08/01 00:31:58;;;;;;;12.50;7.05;;;;;;;;;;4933011;28;20031;-70
2022/08/01 00:34:24;;;;;;;10.93;8.57;;;;;;;;;;4931484;28;20697;-70
2022/08/01 00:36:49;;;;;;;11.25;7.38;;;;;;;;;;4931630;28;20142;-69
2022/08/01 00:39:14;;;;;;;15.00;7.78;;;;;;;;;;4932870;28;20757;-70
2022/08/01 00:41:42;;;;;;;12.88;7.15;;;;;;;;;;4932481;28;20034;-70
2022/08/01 00:44:07;;;;;;;10.65;6.65;;;;;;;;;;4931200;28;20144;-70
2022/08/01 00:46:36;;;;;;;10.63;6.57;;;;;;;;;;4931109;28;20049;-69
2022/08/01 00:49:01;;;;;;;10.70;6.50;;;;;;;;;;4930607;28;21011;-68
2022/08/01 00:51:29;;;;;;;11.52;5.88;;;;;;;;;;4936785;28;20035;-70
2022/08/01 00:53:57;;;;;;;11.23;6.05;;;;;;;;;;4930455;28;20031;-69
2022/08/01 00:56:24;;;;;;;12.10;5.85;;;;;;;;;;4932211;28;20081;-69
2022/08/01 00:58:52;;;;;;;10.32;5.90;;;;;;;;;;4934476;28;20066;-68
2022/08/01 01:01:18;;;;;;;10.02;5.82;;;;;;;;;;4934328;28;20031;-70
2022/08/01 01:03:43;;;;;;;8.88;5.18;;;;;;;;;;4930899;28;20038;-72
2022/08/01 01:06:22;;;;;;;11.70;5.07;;;;;;;;;;4945346;28;20039;-70
2022/08/01 01:09:03;;;;;;;11.02;4.90;;;;;;;;;;4930637;28;22360;-69
2022/08/01 01:11:31;;;;;;;8.73;4.85;;;;;;;;;;4930949;28;20038;-68
2022/08/01 01:14:01;;;;;;;7.45;4.35;;;;;;;;;;4931585;28;20542;-72
2022/08/01 01:16:28;;;;;;;14.50;4.88;;;;;;;;;;4931687;28;20118;-69
2022/08/01 01:19:00;;;;;;;11.98;7.32;;;;;;;;;;4931059;28;20108;-71
2022/08/01 01:21:45;;;;;;;7.50;4.60;;;;;;;;;;4931663;28;20162;-69
2022/08/01 01:24:37;;;;;;;7.45;4.13;;;;;;;;;;4945115;28;20066;-68
2022/08/01 01:27:02;;;;;;;7.75;4.13;;;;;;;;;;4930602;28;20117;-70
2022/08/01 01:29:43;;;;;;;9.68;7.57;;;;;;;;;;4930251;28;20035;-71
2022/08/01 01:32:44;;;;;;;9.38;5.00;;;;;;;;;;4931489;28;20035;-70
2022/08/01 01:35:22;;;;;;;14.23;8.45;;;;;;;;;;4897342;28;20031;-71
2022/08/01 01:37:48;;;;;;;4.90;2.80;;;;;;;;;;4928008;28;20030;-70
2022/08/01 01:40:15;;;;;;;5.75;2.85;;;;;;;;;;4931175;28;20045;-70
2022/08/01 01:42:41;;;;;;;6.28;3.22;;;;;;;;;;4933827;28;20892;-71
2022/08/01 01:45:07;;;;;;;11.85;5.35;;;;;;;;;;4932928;28;20034;-71
2022/08/01 01:47:33;;;;;;;12.35;6.20;;;;;;;;;;4931077;28;20066;-70
2022/08/01 01:49:59;;;;;;;18.58;8.25;;;;;;;;;;4936608;28;20827;-70
2022/08/01 01:52:26;;;;;;;9.95;3.50;;;;;;;;;;4929810;28;20066;-72
2022/08/01 01:54:52;;;;;;;9.90;3.92;;;;;;;;;;4929241;28;20037;-70
2022/08/01 01:57:18;;;;;;;8.35;3.05;;;;;;;;;;4930799;28;20034;-70
2022/08/01 01:59:44;;;;;;;4.88;2.80;;;;;;;;;;4931023;28;20031;-71
2022/08/01 02:02:10;;;;;;;8.13;2.60;;;;;;;;;;4931998;28;20161;-71
2022/08/01 02:04:39;;;;;;;7.10;2.75;;;;;;;;;;4932100;28;20128;-71
2022/08/01 02:07:08;;;;;;;8.02;2.90;;;;;;;;;;4939497;28;20042;-70
2022/08/01 02:09:37;;;;;;;7.70;2.42;;;;;;;;;;4932554;28;20039;-71
2022/08/01 02:12:03;;;;;;;6.18;2.50;;;;;;;;;;4932686;28;20043;-68
2022/08/01 02:14:29;;;;;;;6.78;2.45;;;;;;;;;;4931704;28;20070;-70
2022/08/01 02:16:56;;;;;;;3.38;2.30;;;;;;;;;;4932217;28;20046;-70
2022/08/01 02:19:22;;;;;;;7.43;2.55;;;;;;;;;;4932484;28;20038;-73
2022/08/01 02:21:57;;;;;;;10.30;2.78;;;;;;;;;;4920429;28;20067;-69
2022/08/01 02:24:42;;;;;;;8.13;2.20;;;;;;;;;;4934936;28;20783;-70
2022/08/01 02:27:09;;;;;;;4.38;2.00;;;;;;;;;;4924869;28;20054;-69
2022/08/01 02:29:43;;;;;;;4.85;1.80;;;;;;;;;;4930175;28;20043;-70
2022/08/01 02:32:11;;;;;;;2.45;1.90;;;;;;;;;;4939262;28;20053;-69
2022/08/01 02:34:37;;;;;;;3.25;1.83;;;;;;;;;;4930737;28;20046;-69
2022/08/01 02:37:06;;;;;;;6.53;1.92;;;;;;;;;;4947215;28;20077;-69
2022/08/01 02:39:32;;;;;;;5.15;1.92;;;;;;;;;;4931247;28;20249;-70
2022/08/01 02:42:00;;;;;;;5.68;2.10;;;;;;;;;;4932202;28;22335;-69
2022/08/01 02:44:28;;;;;;;4.15;2.00;;;;;;;;;;4929353;28;20047;-70
2022/08/01 02:46:57;;;;;;;3.63;2.00;;;;;;;;;;4935905;28;20940;-72
2022/08/01 02:49:24;;;;;;;2.70;2.00;;;;;;;;;;4928015;28;20039;-72
2022/08/01 02:51:51;;;;;;;4.65;2.17;;;;;;;;;;4931866;28;20041;-71
2022/08/01 02:54:18;;;;;;;3.30;1.95;;;;;;;;;;4935648;28;20125;-72
2022/08/01 02:56:46;;;;;;;3.50;2.15;;;;;;;;;;4931490;28;20039;-72
2022/08/01 02:59:14;;;;;;;3.60;2.20;;;;;;;;;;4921591;28;20134;-73
2022/08/01 03:01:39;;;;;;;3.70;2.40;;;;;;;;;;4931398;28;20042;-71
2022/08/01 03:04:05;;;;;;;3.75;2.10;;;;;;;;;;4932092;28;21760;-71
2022/08/01 03:06:32;;;;;;;6.00;2.33;;;;;;;;;;4932690;28;20090;-72
2022/08/01 03:08:59;;;;;;;3.60;2.53;;;;;;;;;;4934215;28;20058;-71
2022/08/01 03:11:26;;;;;;;5.35;2.50;;;;;;;;;;4934366;28;20124;-71
2022/08/01 03:13:51;;;;;;;4.07;2.33;;;;;;;;;;4937360;28;20070;-71
2022/08/01 03:16:17;;;;;;;4.10;2.20;;;;;;;;;;4931798;28;20042;-72
2022/08/01 03:18:44;;;;;;;4.72;2.42;;;;;;;;;;4933601;28;20043;-71
2022/08/01 03:21:11;;;;;;;4.15;2.40;;;;;;;;;;4933594;28;20761;-71
2022/08/01 03:23:38;;;;;;;4.05;2.35;;;;;;;;;;4933576;28;20169;-70
2022/08/01 03:26:04;;;;;;;5.97;3.03;;;;;;;;;;4931379;28;20045;-70
2022/08/01 03:28:30;;;;;;;5.05;2.60;;;;;;;;;;4931640;28;20170;-72
2022/08/01 03:30:59;;;;;;;4.50;2.75;;;;;;;;;;4932998;28;20038;-70
2022/08/01 03:33:24;;;;;;;7.60;3.42;;;;;;;;;;4937680;28;20077;-72
2022/08/01 03:35:53;;;;;;;7.72;3.47;;;;;;;;;;4947098;28;20976;-73
2022/08/01 03:38:21;;;;;;;8.90;3.90;;;;;;;;;;4933816;28;20138;-69
2022/08/01 03:41:25;;;;;;;6.95;3.50;;;;;;;;;;4931946;28;20030;-68
2022/08/01 03:44:01;;;;;;;6.05;4.25;;;;;;;;;;4903991;28;20046;-70
2022/08/01 03:46:34;;;;;;;7.13;4.32;;;;;;;;;;4902331;28;20922;-71
2022/08/01 03:49:00;;;;;;;7.45;4.55;;;;;;;;;;4920529;28;20253;-71
2022/08/01 03:51:27;;;;;;;7.72;4.03;;;;;;;;;;4932195;28;20038;-71
2022/08/01 03:53:56;;;;;;;8.23;4.70;;;;;;;;;;4932974;28;20797;-72
2022/08/01 03:56:25;;;;;;;9.57;5.88;;;;;;;;;;4938023;28;20054;-72
2022/08/01 03:58:50;;;;;;;13.48;6.03;;;;;;;;;;4932472;28;20112;-73
2022/08/01 04:01:16;;;;;;;12.93;6.15;;;;;;;;;;4932551;28;20754;-74
2022/08/01 04:03:42;;;;;;;14.00;6.75;;;;;;;;;;4932301;28;22290;-73
2022/08/01 04:06:10;;;;;;;14.18;7.20;;;;;;;;;;4941382;28;20101;-72
2022/08/01 04:08:39;;;;;;;16.13;7.32;;;;;;;;;;4931635;28;20042;-75
2022/08/01 04:11:04;;;;;;;19.10;7.35;;;;;;;;;;4935676;28;20058;-71
2022/08/01 04:13:30;;;;;;;18.90;7.95;;;;;;;;;;4930820;28;20042;-72
2022/08/01 04:15:55;;;;;;;15.90;7.63;;;;;;;;;;4932817;28;20038;-72
2022/08/01 04:18:21;;;;;;;23.50;7.75;;;;;;;;;;4930864;28;20873;-71
2022/08/01 04:20:46;;;;;;;21.35;8.38;;;;;;;;;;4937764;28;20106;-72
2022/08/01 04:23:13;;;;;;;21.58;8.57;;;;;;;;;;4932809;28;20034;-72
2022/08/01 04:25:42;;;;;;;26.88;8.85;;;;;;;;;;4931049;28;20050;-72
2022/08/01 04:28:10;;;;;;;26.75;8.43;;;;;;;;;;4932691;28;20035;-72
2022/08/01 04:30:39;;;;;;;25.70;8.57;;;;;;;;;;4946351;28;20034;-74
2022/08/01 04:33:06;;;;;;;24.40;8.30;;;;;;;;;;4923414;28;23083;-72
2022/08/01 04:35:32;;;;;;;25.85;9.50;;;;;;;;;;4946088;28;20097;-72
2022/08/01 04:37:59;;;;;;;23.23;9.05;;;;;;;;;;4930072;28;20082;-72
2022/08/01 04:40:26;;;;;;;27.58;8.52;;;;;;;;;;4935620;28;20046;-72
2022/08/01 04:42:51;;;;;;;28.38;9.55;;;;;;;;;;4920629;28;20320;-72
2022/08/01 04:45:16;;;;;;;31.10;9.48;;;;;;;;;;4940231;28;20039;-71
2022/08/01 04:47:42;;;;;;;21.52;9.65;;;;;;;;;;4934323;28;20058;-71
2022/08/01 04:50:09;;;;;;;24.30;8.73;;;;;;;;;;4931741;28;20069;-74
2022/08/01 04:52:37;;;;;;;30.30;9.15;;;;;;;;;;4930645;28;20047;-71
2022/08/01 04:55:03;;;;;;;24.98;8.43;;;;;;;;;;4932116;28;20035;-71
2022/08/01 04:57:30;;;;;;;32.67;8.73;;;;;;;;;;4932146;28;20135;-72
2022/08/01 04:59:58;;;;;;;32.13;8.05;;;;;;;;;;4929782;28;20030;-71
2022/08/01 05:02:23;;;;;;;25.88;8.27;;;;;;;;;;4930962;28;20066;-70
2022/08/01 05:04:48;;;;;;;34.95;8.55;;;;;;;;;;4934584;28;20055;-71
2022/08/01 05:07:15;;;;;;;26.90;8.02;;;;;;;;;;4945842;28;20047;-71
2022/08/01 05:09:41;;;;;;;31.45;7.60;;;;;;;;;;4939698;28;20141;-71
2022/08/01 05:12:07;;;;;;;29.50;8.48;;;;;;;;;;4931149;28;20108;-72
2022/08/01 05:14:34;;;;;;;25.77;7.32;;;;;;;;;;4908174;28;20046;-70
2022/08/01 05:17:02;;;;;;;32.65;8.35;;;;;;;;;;4930329;28;20038;-70
2022/08/01 05:19:29;;;;;;;31.25;8.70;;;;;;;;;;4942754;28;20039;-71
2022/08/01 05:21:54;;;;;;;29.75;7.20;;;;;;;;;;4929094;28;20043;-70
2022/08/01 05:24:20;;;;;;;33.30;8.20;;;;;;;;;;4929898;28;20034;-70
2022/08/01 05:26:48;;;;;;;19.42;6.13;;;;;;;;;;4929618;28;20157;-71
2022/08/01 05:29:14;;;;;;;25.60;6.32;;;;;;;;;;4927808;28;20450;-70
2022/08/01 05:31:39;;;;;;;23.48;5.95;;;;;;;;;;4929878;28;20043;-69
2022/08/01 05:34:05;;;;;;;27.25;6.28;;;;;;;;;;4928000;28;21526;-70
2022/08/01 05:36:30;;;;;;;26.25;6.55;;;;;;;;;;4929047;28;20059;-69
2022/08/01 05:38:58;;;;;;;22.70;5.55;;;;;;;;;;4932125;28;20855;-68
2022/08/01 05:41:23;;;;;;;23.20;6.18;;;;;;;;;;4938150;28;20034;-69
2022/08/01 05:43:49;;;;;;;22.23;5.93;;;;;;;;;;4932939;28;20101;-68
2022/08/01 05:46:15;;;;;;;21.70;5.88;;;;;;;;;;4941642;28;20043;-69
2022/08/01 05:48:42;;;;;;;20.85;5.30;;;;;;;;;;4946818;28;20035;-70
2022/08/01 05:51:10;;;;;;;23.17;4.80;;;;;;;;;;4931118;28;20038;-68
2022/08/01 05:53:35;;;;;;;20.73;4.85;;;;;;;;;;4933186;28;20038;-69
2022/08/01 05:56:01;;;;;;;20.80;5.10;;;;;;;;;;4932251;28;20331;-69
2022/08/01 05:58:26;;;;;;;20.60;4.80;;;;;;;;;;4935021;28;20043;-67
2022/08/01 06:00:52;;;;;;;22.63;4.47;;;;;;;;;;4932666;28;20160;-68
2022/08/01 06:03:20;;;;;;;17.40;4.43;;;;;;;;;;4933446;28;20041;-68
2022/08/01 06:05:45;;;;;;;16.48;4.43;;;;;;;;;;4933266;28;20050;-67
2022/08/01 06:08:10;;;;;;;15.45;3.50;;;;;;;;;;4932405;28;20600;-69
2022/08/01 06:10:36;;;;;;;16.83;3.60;;;;;;;;;;4936365;28;20038;-68
2022/08/01 06:13:02;;;;;;;18.13;4.03;;;;;;;;;;4931051;28;20597;-68
2022/08/01 06:15:31;;;;;;;15.45;3.95;;;;;;;;;;4925432;28;20121;-69
2022/08/01 06:17:56;;;;;;;19.73;4.00;;;;;;;;;;4944104;28;20133;-68
2022/08/01 06:20:22;;;;;;;14.50;3.80;;;;;;;;;;4936401;28;20043;-69
2022/08/01 06:22:47;;;;;;;17.55;3.60;;;;;;;;;;4934605;28;20073;-67
2022/08/01 06:25:15;;;;;;;19.20;4.15;;;;;;;;;;4934716;28;20037;-69
2022/08/01 06:27:40;;;;;;;13.90;3.47;;;;;;;;;;4932090;28;20856;-68
2022/08/01 06:30:10;;;;;;;17.05;3.70;;;;;;;;;;4934160;28;20058;-64
2022/08/01 06:32:36;;;;;;;14.18;3.30;;;;;;;;;;4927748;28;20045;-68
2022/08/01 06:35:01;;;;;;;14.00;3.33;;;;;;;;;;4922966;28;20039;-69
2022/08/01 06:37:30;;;;;;;12.45;3.03;;;;;;;;;;4930295;28;20043;-68
2022/08/01 06:39:56;;;;;;;16.60;3.10;;;;;;;;;;4930305;28;20124;-67
2022/08/01 06:42:24;;;;;;;20.77;4.07;;;;;;;;;;4932904;28;22262;-67
2022/08/01 06:44:49;;;;;;;17.52;3.38;;;;;;;;;;4932289;28;20126;-68
2022/08/01 06:47:14;;;;;;;18.45;3.15;;;;;;;;;;4931457;28;20050;-67
2022/08/01 06:49:39;;;;;;;16.65;3.00;;;;;;;;;;4930610;28;20042;-67
2022/08/01 06:52:05;;;;;;;14.35;3.47;;;;;;;;;;4931410;28;20049;-67
2022/08/01 06:54:30;;;;;;;18.00;3.17;;;;;;;;;;4945136;28;20039;-66
2022/08/01 06:56:55;;;;;;;14.95;3.00;;;;;;;;;;4934218;28;20109;-67
2022/08/01 06:59:20;;;;;;;14.40;3.13;;;;;;;;;;4934063;28;20051;-65
2022/08/01 07:01:46;;;;;;;12.43;2.85;;;;;;;;;;4930185;28;20840;-66
2022/08/01 07:04:11;;;;;;;17.05;3.28;;;;;;;;;;4929918;28;20542;-68
2022/08/01 07:06:36;;;;;;;14.40;2.97;;;;;;;;;;4936411;28;20050;-69
2022/08/01 07:09:03;;;;;;;14.30;2.92;;;;;;;;;;4943232;28;20062;-67
2022/08/01 07:11:31;;;;;;;12.18;2.55;;;;;;;;;;4942525;28;20058;-69
2022/08/01 07:13:56;;;;;;;13.68;2.45;;;;;;;;;;4939697;28;20343;-68
2022/08/01 07:16:22;;;;;;;15.18;2.80;;;;;;;;;;4942911;28;20488;-68
2022/08/01 07:18:47;;;;;;;11.52;2.28;;;;;;;;;;4950423;28;20122;-69
2022/08/01 07:21:13;;;;;;;12.63;2.47;;;;;;;;;;4936194;28;20465;-69
2022/08/01 07:23:38;;;;;;;14.40;2.28;;;;;;;;;;4935392;28;20051;-68
2022/08/01 07:26:03;;;;;;;9.35;2.30;;;;;;;;;;4931552;28;20050;-68
2022/08/01 07:28:29;;;;;;;11.77;2.20;;;;;;;;;;4918984;28;22272;-68
2022/08/01 07:30:55;;;;;;;10.35;2.28;;;;;;;;;;4935861;28;20582;-69
2022/08/01 07:33:20;;;;;;;8.65;2.45;;;;;;;;;;4937722;28;20089;-69
2022/08/01 07:35:45;;;;;;;10.73;2.22;;;;;;;;;;4939130;28;20039;-70
2022/08/01 07:38:11;;;;;;;9.77;2.20;;;;;;;;;;4927642;28;20120;-68
2022/08/01 07:40:36;;;;;;;8.98;2.20;;;;;;;;;;4940939;28;20157;-69
2022/08/01 07:43:02;;;;;;;8.85;1.92;;;;;;;;;;4947515;28;20031;-70
2022/08/01 07:45:30;;;;;;;9.50;2.13;;;;;;;;;;4946020;28;20046;-70
2022/08/01 07:47:57;;;;;;;8.20;1.90;;;;;;;;;;4948624;28;20081;-70
2022/08/01 07:50:22;;;;;;;10.15;2.20;;;;;;;;;;4953219;28;20065;-70
2022/08/01 07:52:48;;;;;;;12.48;2.53;;;;;;;;;;4943065;28;20549;-72
2022/08/01 07:55:13;;;;;;;9.50;1.90;;;;;;;;;;4927923;28;20050;-72
2022/08/01 07:57:41;;;;;;;10.63;2.25;;;;;;;;;;4940884;28;20158;-73
2022/08/01 08:00:08;;;;;;;9.13;1.98;;;;;;;;;;4934973;28;20034;-73
2022/08/01 08:02:33;;;;;;;11.13;2.20;;;;;;;;;;4922737;28;20086;-69
2022/08/01 08:04:58;;;;;;;10.88;2.40;;;;;;;;;;4954220;28;20031;-71
2022/08/01 08:07:24;;;;;;;9.13;2.30;;;;;;;;;;4941467;28;20869;-71
2022/08/01 08:09:49;;;;;;;9.93;2.20;;;;;;;;;;4952822;28;20126;-73
2022/08/01 08:12:15;;;;;;;11.00;1.80;;;;;;;;;;4955711;28;20129;-72
2022/08/01 08:14:40;;;;;;;11.25;2.40;;;;;;;;;;4940920;28;20894;-72
2022/08/01 08:17:06;;;;;;;8.65;1.92;;;;;;;;;;4942884;28;20034;-72
2022/08/01 08:19:36;;;;;;;9.43;2.20;;;;;;;;;;4937802;28;21049;-71
2022/08/01 08:22:05;;;;;;;8.10;2.00;;;;;;;;;;4942666;28;20046;-71
2022/08/01 08:24:30;;;;;;;11.35;2.03;;;;;;;;;;4946914;28;20990;-71
2022/08/01 08:26:57;;;;;;;8.15;1.90;;;;;;;;;;4948519;28;20050;-72
2022/08/01 08:29:22;;;;;;;10.00;2.10;;;;;;;;;;4941114;28;20042;-72
2022/08/01 08:31:48;;;;;;;8.85;2.42;;;;;;;;;;4942249;28;20065;-72
2022/08/01 08:34:16;;;;;;;8.43;1.88;;;;;;;;;;4931782;28;20456;-72
2022/08/01 08:36:41;;;;;;;12.18;2.28;;;;;;;;;;4949874;28;20057;-70
2022/08/01 08:39:06;;;;;;;9.70;2.63;;;;;;;;;;4935521;28;22265;-71
2022/08/01 08:41:32;;;;;;;14.88;2.47;;;;;;;;;;4952048;28;20043;-71
2022/08/01 08:43:58;;;;;;;10.57;2.38;;;;;;;;;;4934527;28;20065;-72
2022/08/01 08:46:27;;;;;;;10.90;2.20;;;;;;;;;;4938745;28;20047;-71
2022/08/01 08:48:52;;;;;;;10.63;2.42;;;;;;;;;;4945554;28;20046;-71
2022/08/01 08:51:18;;;;;;;7.35;1.80;;;;;;;;;;4973593;28;20029;-74
2022/08/01 08:53:45;;;;;;;7.65;1.70;;;;;;;;;;4945348;28;20046;-72
2022/08/01 08:56:14;;;;;;;8.30;1.60;;;;;;;;;;4942818;28;20035;-72
2022/08/01 08:58:41;;;;;;;6.38;1.48;;;;;;;;;;4938524;28;20144;-72
2022/08/01 09:01:08;;;;;;;8.60;1.75;;;;;;;;;;4931282;28;20129;-72
2022/08/01 09:03:34;;;;;;;9.88;1.55;;;;;;;;;;4929291;28;20548;-72
2022/08/01 09:06:00;;;;;;;7.00;1.60;;;;;;;;;;4928157;28;20050;-72
2022/08/01 09:08:25;;;;;;;9.70;1.90;;;;;;;;;;4927986;28;20528;-72
2022/08/01 09:10:50;;;;;;;10.07;1.67;;;;;;;;;;4935802;28;20057;-71
2022/08/01 09:13:16;;;;;;;8.82;1.42;;;;;;;;;;4931149;28;20065;-71
2022/08/01 09:15:44;;;;;;;7.65;1.75;;;;;;;;;;4929993;28;20045;-72
2022/08/01 09:18:28;;;;;;;8.18;2.10;;;;;;;;;;4930927;28;20042;-73
2022/08/01 09:21:14;;;;;;;11.52;2.13;;;;;;;;;;4930480;28;20496;-72
2022/08/01 09:23:46;;;;;;;15.07;2.15;;;;;;;;;;4932624;28;20034;-71
2022/08/01 09:26:13;;;;;;;15.98;2.65;;;;;;;;;;4929295;28;20133;-71
2022/08/01 09:28:41;;;;;;;14.95;2.83;;;;;;;;;;4934568;28;20259;-72
2022/08/01 09:31:07;;;;;;;12.93;2.30;;;;;;;;;;4930971;28;20129;-73
2022/08/01 09:33:49;;;;;;;13.00;2.35;;;;;;;;;;4930738;28;20034;-70
2022/08/01 09:36:14;;;;;;;;;;;;;;;;;;4932609;28;20149;-71
2022/08/01 09:38:40;;;;;;;13.93;2.87;;;;;;;;;;4945204;28;20104;-73
2022/08/01 09:41:07;;;;;;;10.73;2.05;;;;;;;;;;4930150;28;20035;-70
2022/08/01 09:43:34;;;;;;;10.93;1.85;;;;;;;;;;4928203;28;20293;-73
2022/08/01 09:46:04;;;;;;;13.20;2.58;;;;;;;;;;4933734;28;20051;-72
2022/08/01 09:48:32;;;;;;;16.02;2.80;;;;;;;;;;4933902;28;20035;-71
2022/08/01 09:50:58;;;;;;;14.90;2.20;;;;;;;;;;4931707;28;20517;-73
2022/08/01 09:53:24;;;;;;;14.05;2.28;;;;;;;;;;4932468;28;20045;-74
2022/08/01 09:55:52;;;;;;;13.68;2.38;;;;;;;;;;4931336;28;20468;-74
2022/08/01 09:58:17;;;;;;;14.18;2.63;;;;;;;;;;4931549;28;20038;-72
2022/08/01 10:00:56;;;;;;;14.00;2.70;;;;;;;;;;4937621;28;20097;-72
2022/08/01 10:03:25;;;;;;;14.30;2.53;;;;;;;;;;4932515;28;20069;-74
2022/08/01 10:05:53;;;;;;;19.30;2.95;;;;;;;;;;4930000;28;20510;-71
2022/08/01 10:08:18;;;;;;;16.70;2.83;;;;;;;;;;4933991;28;20145;-71
2022/08/01 10:11:06;;;;;;;18.52;2.67;;;;;;;;;;4933283;28;20751;-72
2022/08/01 10:13:31;;;;;;;11.30;2.30;;;;;;;;;;4936173;28;20902;-72
2022/08/01 10:16:00;;;;;;;9.68;2.22;;;;;;;;;;4929471;28;21853;-73
2022/08/01 10:18:26;;;;;;;11.80;2.38;;;;;;;;;;4931464;28;20117;-74
2022/08/01 10:20:54;;;;;;;14.27;2.55;;;;;;;;;;4932565;28;20073;-73
2022/08/01 10:23:19;;;;;;;15.60;2.58;;;;;;;;;;4931311;28;20092;-74
2022/08/01 10:25:47;;;;;;;11.10;2.28;;;;;;;;;;4952758;28;20210;-73
2022/08/01 10:28:15;;;;;;;18.45;2.47;;;;;;;;;;4931403;28;20502;-72
2022/08/01 10:30:41;;;;;;;13.82;2.35;;;;;;;;;;4932156;28;20153;-73
2022/08/01 10:33:10;;;;;;;16.30;2.17;;;;;;;;;;4931063;28;20057;-74
2022/08/01 10:35:35;;;;;;;15.20;2.40;;;;;;;;;;4917525;28;20038;-71
2022/08/01 10:38:03;;;;;;;14.82;2.50;;;;;;;;;;4945770;28;20565;-72
2022/08/01 10:40:31;;;;;;;12.48;2.47;;;;;;;;;;4931104;28;20074;-72
2022/08/01 10:42:57;;;;;;;14.57;2.72;;;;;;;;;;4935861;28;20038;-72
2022/08/01 10:45:23;;;;;;;12.63;2.33;;;;;;;;;;4931405;28;20340;-71
2022/08/01 10:47:49;;;;;;;13.10;2.60;;;;;;;;;;4931104;28;20434;-74
2022/08/01 10:50:23;;;;;;;13.52;2.03;;;;;;;;;;4931102;28;20566;-72
2022/08/01 10:53:26;;;;;;;13.75;2.13;;;;;;;;;;4936567;28;20292;-74
2022/08/01 10:56:00;;;;;;;19.10;2.60;;;;;;;;;;4902244;28;20039;-73
2022/08/01 10:58:40;;;;;;;16.58;2.65;;;;;;;;;;4922618;28;20097;-72
2022/08/01 11:01:26;;;;;;;9.32;1.95;;;;;;;;;;4933711;28;21660;-74
2022/08/01 11:04:03;;;;;;;11.23;1.98;;;;;;;;;;4931553;28;20532;-73
2022/08/01 11:06:33;;;;;;;12.95;2.20;;;;;;;;;;4932506;28;20225;-75
2022/08/01 11:09:11;;;;;;;15.70;2.08;;;;;;;;;;4934135;28;20454;-70
2022/08/01 11:11:56;;;;;;;15.40;2.30;;;;;;;;;;4930824;28;20031;-75
2022/08/01 11:14:21;;;;;;;13.07;2.20;;;;;;;;;;4930853;28;20045;-72
2022/08/01 11:16:48;;;;;;;11.90;2.03;;;;;;;;;;4933121;28;20099;-72
2022/08/01 11:19:14;;;;;;;10.48;2.10;;;;;;;;;;4930277;28;20126;-74
2022/08/01 11:21:51;;;;;;;13.68;2.53;;;;;;;;;;4932427;28;20046;-73
2022/08/01 11:24:35;;;;;;;9.15;2.15;;;;;;;;;;4931059;28;20150;-73
2022/08/01 11:27:17;;;;;;;14.73;2.20;;;;;;;;;;4929892;28;20058;-74
2022/08/01 11:29:43;;;;;;;11.35;2.25;;;;;;;;;;4927727;28;20388;-71
2022/08/01 11:32:24;;;;;;;12.52;2.33;;;;;;;;;;4930350;28;20057;-74
2022/08/01 11:34:54;;;;;;;13.93;2.25;;;;;;;;;;4930923;28;20073;-71
2022/08/01 11:37:23;;;;;;;10.68;2.00;;;;;;;;;;4930871;28;20392;-73
2022/08/01 11:40:09;;;;;;;10.85;1.95;;;;;;;;;;4945142;28;20042;-72
2022/08/01 11:42:35;;;;;;;14.02;2.45;;;;;;;;;;4946084;28;20043;-72
2022/08/01 11:45:00;;;;;;;13.63;2.30;;;;;;;;;;4928905;28;20244;-67
2022/08/01 11:47:45;;;;;;;15.15;2.30;;;;;;;;;;4932133;28;20450;-73
2022/08/01 11:50:29;;;;;;;13.10;2.17;;;;;;;;;;4943379;28;20111;-72
2022/08/01 11:53:02;;;;;;;11.50;1.98;;;;;;;;;;4928315;28;20050;-72
2022/08/01 11:55:43;;;;;;;9.80;1.90;;;;;;;;;;5041710;27;20565;-72
2022/08/01 11:58:08;;;;;;;12.95;2.38;;;;;;;;;;5030261;27;20460;-72
2022/08/01 12:00:37;;;;;;;9.05;2.08;;;;;;;;;;5036381;27;20145;-72
2022/08/01 12:03:08;;;;;;;15.27;2.42;;;;;;;;;;5051543;27;20036;-72
2022/08/01 12:05:34;;;;;;;;;;;;;;;;;;5019144;27;20040;-72
2022/08/01 12:08:00;;;;;;;12.65;2.25;;;;;;;;;;5037524;27;20594;-71
2022/08/01 12:10:48;;;;;;;13.00;2.20;;;;;;;;;;5033763;27;20200;-72
2022/08/01 12:13:13;;;;;;;11.45;1.80;;;;;;;;;;5012759;28;20692;-73
2022/08/01 12:15:39;;;;;;;18.77;2.30;;;;;;;;;;5059773;27;20055;-72
2022/08/01 12:18:06;;;;;;;9.27;2.00;;;;;;;;;;5063970;27;20136;-72
2022/08/01 12:20:32;;;;;;;12.82;2.50;;;;;;;;;;5066567;27;20510;-73
2022/08/01 12:22:59;;;;;;;10.38;2.53;;;;;;;;;;5048182;27;20039;-73
2022/08/01 12:25:24;;;;;;;10.20;2.42;;;;;;;;;;5035745;27;20555;-71
2022/08/01 12:27:49;;;;;;;11.80;2.00;;;;;;;;;;5036299;27;20037;-71
2022/08/01 12:30:19;;;;;;;12.02;2.20;;;;;;;;;;5035900;27;21852;-71
2022/08/01 12:32:46;;;;;;;9.02;1.77;;;;;;;;;;5024280;28;20078;-72
2022/08/01 12:35:16;;;;;;;12.50;2.15;;;;;;;;;;5033422;28;20063;-72
2022/08/01 12:37:46;;;;;;;7.38;1.73;;;;;;;;;;5037186;28;20575;-72
2022/08/01 12:40:32;;;;;;;10.68;1.92;;;;;;;;;;5033529;28;20038;-70
2022/08/01 12:42:59;;;;;;;8.50;1.60;;;;;;;;;;5035603;28;20515;-70
2022/08/01 12:45:29;;;;;;;7.55;1.73;;;;;;;;;;5035994;28;20040;-73
2022/08/01 12:47:54;;;;;;;8.35;1.70;;;;;;;;;;5038727;28;20490;-72
2022/08/01 12:50:22;;;;;;;11.52;1.83;;;;;;;;;;5022970;28;20131;-71
2022/08/01 12:52:48;;;;;;;8.23;1.63;;;;;;;;;;5030664;28;20185;-76
2022/08/01 12:55:17;;;;;;;9.40;1.80;;;;;;;;;;5039892;28;20071;-70
2022/08/01 12:57:44;;;;;;;10.25;1.60;;;;;;;;;;5038309;28;20580;-75
2022/08/01 13:00:16;;;;;;;8.73;1.52;;;;;;;;;;5040253;28;22249;-72
2022/08/01 13:02:42;;;;;;;5.93;1.40;;;;;;;;;;5045005;28;20660;-75
2022/08/01 13:05:10;;;;;;;7.82;1.52;;;;;;;;;;5032358;28;20118;-73
2022/08/01 13:07:40;;;;;;;10.38;1.58;;;;;;;;;;5026518;28;20033;-74
2022/08/01 13:10:08;;;;;;;8.68;1.73;;;;;;;;;;5042661;27;20032;-74
2022/08/01 13:12:34;;;;;;;7.78;1.95;;;;;;;;;;5030579;28;20028;-73
2022/08/01 13:14:59;;;;;;;6.63;1.30;;;;;;;;;;5023700;28;20387;-73
2022/08/01 13:17:32;;;;;;;9.75;1.63;;;;;;;;;;5033889;28;20036;-73
2022/08/01 13:19:58;;;;;;;8.65;1.77;;;;;;;;;;5023035;28;20501;-76
2022/08/01 13:22:31;;;;;;;8.00;1.23;;;;;;;;;;5022149;28;20032;-72
2022/08/01 13:25:10;;;;;;;7.60;1.40;;;;;;;;;;5020993;28;20052;-72
2022/08/01 13:27:35;;;;;;;9.27;1.58;;;;;;;;;;5023950;28;20429;-75
2022/08/01 13:30:21;;;;;;;8.07;1.50;;;;;;;;;;5027637;28;20041;-76
2022/08/01 13:33:00;;;;;;;7.60;1.60;;;;;;;;;;5022945;28;20387;-76
2022/08/01 13:35:25;;;;;;;6.03;1.25;;;;;;;;;;5022518;28;20389;-74
2022/08/01 13:37:51;;;;;;;6.82;1.10;;;;;;;;;;5022943;28;20058;-73
2022/08/01 13:40:23;;;;;;;6.85;1.20;;;;;;;;;;5038263;28;20033;-73
2022/08/01 13:42:49;;;;;;;6.32;1.42;;;;;;;;;;5021225;28;20289;-80
2022/08/01 13:45:14;;;;;;;7.72;1.35;;;;;;;;;;5024685;28;20041;-75
2022/08/01 13:47:43;;;;;;;5.53;1.13;;;;;;;;;;5009457;28;20114;-75
2022/08/01 13:50:08;;;;;;;8.25;1.38;;;;;;;;;;5003422;28;20819;-75
2022/08/01 13:52:34;;;;;;;7.40;1.80;;;;;;;;;;5025112;28;20243;-74
2022/08/01 13:55:00;;;;;;;7.10;1.02;;;;;;;;;;5015134;28;20171;-77
2022/08/01 13:57:25;;;;;;;9.75;1.52;;;;;;;;;;5042353;28;20040;-77
2022/08/01 13:59:51;;;;;;;6.10;1.02;;;;;;;;;;5018387;28;20044;-77
2022/08/01 14:02:19;;;;;;;5.53;1.52;;;;;;;;;;5035959;28;20040;-75
2022/08/01 14:04:44;;;;;;;6.88;1.42;;;;;;;;;;5028560;28;20075;-75
2022/08/01 14:07:10;;;;;;;7.18;1.45;;;;;;;;;;5019975;28;20805;-74
2022/08/01 14:09:35;;;;;;;5.53;1.27;;;;;;;;;;5035419;28;20119;-74
2022/08/01 14:12:01;;;;;;;3.72;1.15;;;;;;;;;;5034850;28;20048;-72
2022/08/01 14:14:26;;;;;;;8.77;1.40;;;;;;;;;;5020603;28;20041;-73
2022/08/01 14:16:52;;;;;;;8.02;1.80;;;;;;;;;;5034063;28;20045;-73
2022/08/01 14:19:17;;;;;;;11.43;1.63;;;;;;;;;;5037060;28;20478;-72
2022/08/01 14:21:43;;;;;;;9.82;1.70;;;;;;;;;;5021796;28;20378;-74
2022/08/01 14:24:09;;;;;;;6.72;1.38;;;;;;;;;;5020067;28;20123;-72
2022/08/01 14:26:34;;;;;;;4.47;1.30;;;;;;;;;;5019871;28;20138;-72
2022/08/01 14:28:59;;;;;;;6.57;1.00;;;;;;;;;;5035295;28;20037;-74
2022/08/01 14:31:25;;;;;;;7.32;1.35;;;;;;;;;;5021828;28;20045;-73
2022/08/01 14:33:51;;;;;;;5.40;1.20;;;;;;;;;;5019154;28;20051;-73
2022/08/01 14:36:16;;;;;;;6.25;1.20;;;;;;;;;;5020231;28;20485;-74
2022/08/01 14:38:44;;;;;;;7.40;1.23;;;;;;;;;;5023269;28;20641;-73
2022/08/01 14:41:09;;;;;;;6.35;1.42;;;;;;;;;;5008374;28;20032;-74